sensor_id;sensor_type;location;lat;lon;timestamp;P1;durP1;ratioP1;P2;durP2;ratioP2
3916;SDS011;1973;50.518;7.318;2024-02-04T00:00:53;2.10;;;1.27;;
3916;SDS011;1973;50.518;7.318;2024-02-04T00:03:20;2.93;;;1.07;;
3916;SDS011;1973;50.518;7.318;2024-02-04T00:05:48;2.20;;;1.17;;
3916;SDS011;1973;50.518;7.318;2024-02-04T00:08:15;1.47;;;1.10;;
3916;SDS011;1973;50.518;7.318;2024-02-04T00:10:43;1.87;;;1.03;;
3916;SDS011;1973;50.518;7.318;2024-02-04T00:13:10;1.17;;;0.90;;
3916;SDS011;1973;50.518;7.318;2024-02-04T00:15:36;2.10;;;0.80;;
3916;SDS011;1973;50.518;7.318;2024-02-04T00:18:03;1.20;;;0.77;;
3916;SDS011;1973;50.518;7.318;2024-02-04T00:20:30;1.20;;;0.70;;
3916;SDS011;1973;50.518;7.318;2024-02-04T00:22:58;2.00;;;0.70;;
3916;SDS011;1973;50.518;7.318;2024-02-04T00:25:25;3.20;;;0.77;;
3916;SDS011;1973;50.518;7.318;2024-02-04T00:27:52;1.27;;;0.77;;
3916;SDS011;1973;50.518;7.318;2024-02-04T00:30:18;2.87;;;0.70;;
3916;SDS011;1973;50.518;7.318;2024-02-04T00:32:45;1.03;;;0.60;;
3916;SDS011;1973;50.518;7.318;2024-02-04T00:35:12;1.00;;;0.50;;
3916;SDS011;1973;50.518;7.318;2024-02-04T00:37:39;3.50;;;0.60;;
3916;SDS011;1973;50.518;7.318;2024-02-04T00:40:05;1.00;;;0.60;;
3916;SDS011;1973;50.518;7.318;2024-02-04T00:42:32;1.20;;;0.60;;
3916;SDS011;1973;50.518;7.318;2024-02-04T00:44:59;1.60;;;0.50;;
3916;SDS011;1973;50.518;7.318;2024-02-04T00:47:25;1.10;;;0.60;;
3916;SDS011;1973;50.518;7.318;2024-02-04T00:49:52;1.00;;;0.60;;
3916;SDS011;1973;50.518;7.318;2024-02-04T00:52:20;1.10;;;0.70;;
3916;SDS011;1973;50.518;7.318;2024-02-04T00:54:47;1.17;;;0.57;;
3916;SDS011;1973;50.518;7.318;2024-02-04T00:57:13;1.80;;;0.70;;
3916;SDS011;1973;50.518;7.318;2024-02-04T00:59:39;3.57;;;0.60;;
3916;SDS011;1973;50.518;7.318;2024-02-04T01:02:06;1.10;;;0.67;;
3916;SDS011;1973;50.518;7.318;2024-02-04T01:04:33;1.20;;;0.70;;
3916;SDS011;1973;50.518;7.318;2024-02-04T01:07:00;1.33;;;0.70;;
3916;SDS011;1973;50.518;7.318;2024-02-04T01:09:30;2.47;;;0.80;;
3916;SDS011;1973;50.518;7.318;2024-02-04T01:11:56;1.10;;;0.80;;
3916;SDS011;1973;50.518;7.318;2024-02-04T01:14:24;5.20;;;1.00;;
3916;SDS011;1973;50.518;7.318;2024-02-04T01:16:50;1.93;;;1.00;;
3916;SDS011;1973;50.518;7.318;2024-02-04T01:19:17;2.83;;;1.03;;
3916;SDS011;1973;50.518;7.318;2024-02-04T01:21:44;1.37;;;0.83;;
3916;SDS011;1973;50.518;7.318;2024-02-04T01:24:11;1.20;;;0.90;;
3916;SDS011;1973;50.518;7.318;2024-02-04T01:26:38;1.40;;;0.80;;
3916;SDS011;1973;50.518;7.318;2024-02-04T01:29:04;1.20;;;0.80;;
3916;SDS011;1973;50.518;7.318;2024-02-04T01:31:31;1.43;;;0.70;;
3916;SDS011;1973;50.518;7.318;2024-02-04T01:33:57;2.27;;;0.60;;
3916;SDS011;1973;50.518;7.318;2024-02-04T01:36:24;1.77;;;0.60;;
3916;SDS011;1973;50.518;7.318;2024-02-04T01:38:51;2.40;;;0.70;;
3916;SDS011;1973;50.518;7.318;2024-02-04T01:41:17;2.03;;;0.63;;
3916;SDS011;1973;50.518;7.318;2024-02-04T01:43:44;1.30;;;0.60;;
3916;SDS011;1973;50.518;7.318;2024-02-04T01:46:12;1.20;;;0.60;;
3916;SDS011;1973;50.518;7.318;2024-02-04T01:48:39;1.63;;;0.60;;
3916;SDS011;1973;50.518;7.318;2024-02-04T01:51:06;1.13;;;0.60;;
3916;SDS011;1973;50.518;7.318;2024-02-04T01:53:34;1.23;;;0.50;;
3916;SDS011;1973;50.518;7.318;2024-02-04T01:56:00;1.27;;;0.83;;
3916;SDS011;1973;50.518;7.318;2024-02-04T01:58:28;1.70;;;0.70;;
3916;SDS011;1973;50.518;7.318;2024-02-04T02:00:54;0.90;;;0.50;;
3916;SDS011;1973;50.518;7.318;2024-02-04T02:03:21;1.27;;;0.60;;
3916;SDS011;1973;50.518;7.318;2024-02-04T02:05:49;1.00;;;0.50;;
3916;SDS011;1973;50.518;7.318;2024-02-04T02:08:16;0.90;;;0.50;;
3916;SDS011;1973;50.518;7.318;2024-02-04T02:13:24;0.90;;;0.50;;
3916;SDS011;1973;50.518;7.318;2024-02-04T02:15:56;0.80;;;0.40;;
3916;SDS011;1973;50.518;7.318;2024-02-04T02:27:05;1.17;;;0.57;;
3916;SDS011;1973;50.518;7.318;2024-02-04T02:29:32;1.30;;;0.73;;
3916;SDS011;1973;50.518;7.318;2024-02-04T02:31:59;1.30;;;0.80;;
3916;SDS011;1973;50.518;7.318;2024-02-04T02:34:27;0.90;;;0.50;;
3916;SDS011;1973;50.518;7.318;2024-02-04T02:37:20;1.93;;;0.60;;
3916;SDS011;1973;50.518;7.318;2024-02-04T02:39:58;0.90;;;0.47;;
3916;SDS011;1973;50.518;7.318;2024-02-04T02:42:31;1.07;;;0.50;;
3916;SDS011;1973;50.518;7.318;2024-02-04T02:44:59;0.90;;;0.50;;
3916;SDS011;1973;50.518;7.318;2024-02-04T02:47:26;0.90;;;0.50;;
3916;SDS011;1973;50.518;7.318;2024-02-04T02:49:55;0.80;;;0.40;;
3916;SDS011;1973;50.518;7.318;2024-02-04T02:52:22;0.90;;;0.40;;
3916;SDS011;1973;50.518;7.318;2024-02-04T02:54:49;1.00;;;0.40;;
3916;SDS011;1973;50.518;7.318;2024-02-04T02:57:15;1.00;;;0.50;;
3916;SDS011;1973;50.518;7.318;2024-02-04T02:59:42;0.80;;;0.40;;
3916;SDS011;1973;50.518;7.318;2024-02-04T03:02:09;1.17;;;0.70;;
3916;SDS011;1973;50.518;7.318;2024-02-04T03:04:35;0.90;;;0.40;;
3916;SDS011;1973;50.518;7.318;2024-02-04T03:07:02;0.90;;;0.40;;
3916;SDS011;1973;50.518;7.318;2024-02-04T03:09:30;0.80;;;0.50;;
3916;SDS011;1973;50.518;7.318;2024-02-04T03:11:57;1.60;;;0.50;;
3916;SDS011;1973;50.518;7.318;2024-02-04T03:14:23;0.80;;;0.40;;
3916;SDS011;1973;50.518;7.318;2024-02-04T03:16:50;0.83;;;0.40;;
3916;SDS011;1973;50.518;7.318;2024-02-04T03:19:20;1.23;;;0.60;;
3916;SDS011;1973;50.518;7.318;2024-02-04T03:21:47;1.00;;;0.40;;
3916;SDS011;1973;50.518;7.318;2024-02-04T03:24:14;0.80;;;0.40;;
3916;SDS011;1973;50.518;7.318;2024-02-04T03:26:40;2.23;;;0.93;;
3916;SDS011;1973;50.518;7.318;2024-02-04T03:29:07;0.90;;;0.40;;
3916;SDS011;1973;50.518;7.318;2024-02-04T03:31:33;1.10;;;0.50;;
3916;SDS011;1973;50.518;7.318;2024-02-04T03:34:00;0.97;;;0.43;;
3916;SDS011;1973;50.518;7.318;2024-02-04T03:36:27;0.80;;;0.40;;
3916;SDS011;1973;50.518;7.318;2024-02-04T03:38:53;0.80;;;0.40;;
3916;SDS011;1973;50.518;7.318;2024-02-04T03:41:20;0.80;;;0.40;;
3916;SDS011;1973;50.518;7.318;2024-02-04T03:43:46;1.03;;;0.50;;
3916;SDS011;1973;50.518;7.318;2024-02-04T03:46:13;0.90;;;0.50;;
3916;SDS011;1973;50.518;7.318;2024-02-04T03:48:43;0.90;;;0.50;;
3916;SDS011;1973;50.518;7.318;2024-02-04T03:51:17;1.10;;;0.40;;
3916;SDS011;1973;50.518;7.318;2024-02-04T03:53:45;0.90;;;0.40;;
3916;SDS011;1973;50.518;7.318;2024-02-04T03:56:12;0.80;;;0.40;;
3916;SDS011;1973;50.518;7.318;2024-02-04T03:58:39;0.80;;;0.40;;
3916;SDS011;1973;50.518;7.318;2024-02-04T04:01:05;0.90;;;0.50;;
3916;SDS011;1973;50.518;7.318;2024-02-04T04:03:36;1.10;;;0.40;;
3916;SDS011;1973;50.518;7.318;2024-02-04T04:06:02;1.63;;;1.07;;
3916;SDS011;1973;50.518;7.318;2024-02-04T04:08:29;1.10;;;0.50;;
3916;SDS011;1973;50.518;7.318;2024-02-04T04:10:56;0.80;;;0.40;;
3916;SDS011;1973;50.518;7.318;2024-02-04T04:13:22;0.80;;;0.40;;
3916;SDS011;1973;50.518;7.318;2024-02-04T04:15:50;0.80;;;0.40;;
3916;SDS011;1973;50.518;7.318;2024-02-04T04:18:17;0.97;;;0.43;;
3916;SDS011;1973;50.518;7.318;2024-02-04T04:20:43;0.90;;;0.50;;
3916;SDS011;1973;50.518;7.318;2024-02-04T04:23:10;0.80;;;0.50;;
3916;SDS011;1973;50.518;7.318;2024-02-04T04:25:36;1.20;;;0.50;;
3916;SDS011;1973;50.518;7.318;2024-02-04T04:28:03;0.90;;;0.50;;
3916;SDS011;1973;50.518;7.318;2024-02-04T04:30:30;0.90;;;0.40;;
3916;SDS011;1973;50.518;7.318;2024-02-04T04:32:57;1.13;;;0.40;;
3916;SDS011;1973;50.518;7.318;2024-02-04T04:35:26;0.80;;;0.40;;
3916;SDS011;1973;50.518;7.318;2024-02-04T04:37:52;0.80;;;0.40;;
3916;SDS011;1973;50.518;7.318;2024-02-04T04:40:19;1.00;;;0.60;;
3916;SDS011;1973;50.518;7.318;2024-02-04T04:42:45;0.80;;;0.40;;
3916;SDS011;1973;50.518;7.318;2024-02-04T04:45:12;0.90;;;0.50;;
3916;SDS011;1973;50.518;7.318;2024-02-04T04:47:40;0.80;;;0.50;;
3916;SDS011;1973;50.518;7.318;2024-02-04T04:50:07;0.80;;;0.40;;
3916;SDS011;1973;50.518;7.318;2024-02-04T04:52:34;0.80;;;0.40;;
3916;SDS011;1973;50.518;7.318;2024-02-04T04:55:00;3.87;;;1.77;;
3916;SDS011;1973;50.518;7.318;2024-02-04T04:57:27;3.93;;;1.43;;
3916;SDS011;1973;50.518;7.318;2024-02-04T04:59:54;1.73;;;0.97;;
3916;SDS011;1973;50.518;7.318;2024-02-04T05:02:20;2.93;;;0.97;;
3916;SDS011;1973;50.518;7.318;2024-02-04T05:04:47;1.30;;;0.70;;
3916;SDS011;1973;50.518;7.318;2024-02-04T05:07:14;1.30;;;0.60;;
3916;SDS011;1973;50.518;7.318;2024-02-04T05:09:41;1.50;;;0.67;;
3916;SDS011;1973;50.518;7.318;2024-02-04T05:12:08;0.90;;;0.50;;
3916;SDS011;1973;50.518;7.318;2024-02-04T05:14:36;1.00;;;0.50;;
3916;SDS011;1973;50.518;7.318;2024-02-04T05:17:03;1.17;;;0.50;;
3916;SDS011;1973;50.518;7.318;2024-02-04T05:19:30;2.67;;;0.53;;
3916;SDS011;1973;50.518;7.318;2024-02-04T05:21:56;1.53;;;0.50;;
3916;SDS011;1973;50.518;7.318;2024-02-04T05:24:23;1.40;;;0.50;;
3916;SDS011;1973;50.518;7.318;2024-02-04T05:26:50;0.90;;;0.50;;
3916;SDS011;1973;50.518;7.318;2024-02-04T05:29:16;1.47;;;0.50;;
3916;SDS011;1973;50.518;7.318;2024-02-04T05:31:43;1.13;;;0.50;;
3916;SDS011;1973;50.518;7.318;2024-02-04T05:34:10;1.20;;;0.50;;
3916;SDS011;1973;50.518;7.318;2024-02-04T05:36:37;1.07;;;0.50;;
3916;SDS011;1973;50.518;7.318;2024-02-04T05:39:10;0.90;;;0.50;;
3916;SDS011;1973;50.518;7.318;2024-02-04T05:41:38;0.90;;;0.50;;
3916;SDS011;1973;50.518;7.318;2024-02-04T05:44:05;1.43;;;0.80;;
3916;SDS011;1973;50.518;7.318;2024-02-04T05:46:38;1.20;;;0.50;;
3916;SDS011;1973;50.518;7.318;2024-02-04T05:49:05;0.87;;;0.50;;
3916;SDS011;1973;50.518;7.318;2024-02-04T05:51:32;0.90;;;0.40;;
3916;SDS011;1973;50.518;7.318;2024-02-04T05:54:04;0.80;;;0.40;;
3916;SDS011;1973;50.518;7.318;2024-02-04T05:56:30;1.13;;;0.50;;
3916;SDS011;1973;50.518;7.318;2024-02-04T05:58:57;1.40;;;0.50;;
3916;SDS011;1973;50.518;7.318;2024-02-04T06:01:23;1.77;;;0.50;;
3916;SDS011;1973;50.518;7.318;2024-02-04T06:03:50;0.90;;;0.50;;
3916;SDS011;1973;50.518;7.318;2024-02-04T06:06:17;1.30;;;0.40;;
3916;SDS011;1973;50.518;7.318;2024-02-04T06:08:46;0.80;;;0.40;;
3916;SDS011;1973;50.518;7.318;2024-02-04T06:11:13;0.90;;;0.40;;
3916;SDS011;1973;50.518;7.318;2024-02-04T06:13:40;1.00;;;0.50;;
3916;SDS011;1973;50.518;7.318;2024-02-04T06:16:08;2.27;;;0.50;;
3916;SDS011;1973;50.518;7.318;2024-02-04T06:18:36;0.90;;;0.50;;
3916;SDS011;1973;50.518;7.318;2024-02-04T06:21:05;1.20;;;0.57;;
3916;SDS011;1973;50.518;7.318;2024-02-04T06:23:32;1.30;;;0.67;;
3916;SDS011;1973;50.518;7.318;2024-02-04T06:25:59;1.10;;;0.60;;
3916;SDS011;1973;50.518;7.318;2024-02-04T06:28:26;0.90;;;0.50;;
3916;SDS011;1973;50.518;7.318;2024-02-04T06:30:53;1.00;;;0.50;;
3916;SDS011;1973;50.518;7.318;2024-02-04T06:33:20;0.90;;;0.50;;
3916;SDS011;1973;50.518;7.318;2024-02-04T06:35:48;1.10;;;0.50;;
3916;SDS011;1973;50.518;7.318;2024-02-04T06:38:14;1.00;;;0.50;;
3916;SDS011;1973;50.518;7.318;2024-02-04T06:40:41;4.03;;;0.67;;
3916;SDS011;1973;50.518;7.318;2024-02-04T06:43:08;1.63;;;0.70;;
3916;SDS011;1973;50.518;7.318;2024-02-04T06:45:34;2.00;;;0.90;;
3916;SDS011;1973;50.518;7.318;2024-02-04T06:48:01;3.33;;;1.60;;
3916;SDS011;1973;50.518;7.318;2024-02-04T06:50:29;2.63;;;1.50;;
3916;SDS011;1973;50.518;7.318;2024-02-04T06:52:55;2.90;;;1.33;;
3916;SDS011;1973;50.518;7.318;2024-02-04T06:55:22;3.47;;;0.80;;
3916;SDS011;1973;50.518;7.318;2024-02-04T06:57:48;1.67;;;0.80;;
3916;SDS011;1973;50.518;7.318;2024-02-04T07:00:15;1.20;;;0.80;;
3916;SDS011;1973;50.518;7.318;2024-02-04T07:02:42;3.23;;;1.07;;
3916;SDS011;1973;50.518;7.318;2024-02-04T07:05:09;1.50;;;0.93;;
3916;SDS011;1973;50.518;7.318;2024-02-04T07:07:37;2.40;;;0.90;;
3916;SDS011;1973;50.518;7.318;2024-02-04T07:10:04;1.40;;;1.00;;
3916;SDS011;1973;50.518;7.318;2024-02-04T07:12:31;2.10;;;1.00;;
3916;SDS011;1973;50.518;7.318;2024-02-04T07:14:58;1.30;;;0.80;;
3916;SDS011;1973;50.518;7.318;2024-02-04T07:17:25;1.80;;;1.20;;
3916;SDS011;1973;50.518;7.318;2024-02-04T07:19:51;1.33;;;0.93;;
3916;SDS011;1973;50.518;7.318;2024-02-04T07:22:18;1.70;;;0.90;;
3916;SDS011;1973;50.518;7.318;2024-02-04T07:24:45;1.63;;;0.80;;
3916;SDS011;1973;50.518;7.318;2024-02-04T07:27:11;3.20;;;1.40;;
3916;SDS011;1973;50.518;7.318;2024-02-04T07:29:38;1.73;;;1.20;;
3916;SDS011;1973;50.518;7.318;2024-02-04T07:32:04;2.13;;;1.53;;
3916;SDS011;1973;50.518;7.318;2024-02-04T07:34:31;2.73;;;1.50;;
3916;SDS011;1973;50.518;7.318;2024-02-04T07:36:58;7.07;;;4.30;;
3916;SDS011;1973;50.518;7.318;2024-02-04T07:39:25;10.60;;;5.63;;
3916;SDS011;1973;50.518;7.318;2024-02-04T07:41:51;6.30;;;4.23;;
3916;SDS011;1973;50.518;7.318;2024-02-04T07:44:20;5.63;;;4.20;;
3916;SDS011;1973;50.518;7.318;2024-02-04T07:46:46;3.70;;;2.77;;
3916;SDS011;1973;50.518;7.318;2024-02-04T07:49:13;1.53;;;1.00;;
3916;SDS011;1973;50.518;7.318;2024-02-04T07:51:40;2.10;;;1.40;;
3916;SDS011;1973;50.518;7.318;2024-02-04T07:54:06;2.03;;;1.33;;
3916;SDS011;1973;50.518;7.318;2024-02-04T07:56:33;2.67;;;1.30;;
3916;SDS011;1973;50.518;7.318;2024-02-04T07:58:59;1.90;;;1.00;;
3916;SDS011;1973;50.518;7.318;2024-02-04T08:01:26;1.67;;;1.13;;
3916;SDS011;1973;50.518;7.318;2024-02-04T08:03:52;1.30;;;1.10;;
3916;SDS011;1973;50.518;7.318;2024-02-04T08:06:19;1.20;;;0.90;;
3916;SDS011;1973;50.518;7.318;2024-02-04T08:08:46;1.90;;;1.30;;
3916;SDS011;1973;50.518;7.318;2024-02-04T08:11:17;1.70;;;1.10;;
3916;SDS011;1973;50.518;7.318;2024-02-04T08:13:44;1.40;;;0.90;;
3916;SDS011;1973;50.518;7.318;2024-02-04T08:16:11;1.10;;;0.60;;
3916;SDS011;1973;50.518;7.318;2024-02-04T08:18:38;2.07;;;0.70;;
3916;SDS011;1973;50.518;7.318;2024-02-04T08:21:05;1.87;;;0.60;;
3916;SDS011;1973;50.518;7.318;2024-02-04T08:23:32;0.90;;;0.60;;
3916;SDS011;1973;50.518;7.318;2024-02-04T08:25:59;2.10;;;0.70;;
3916;SDS011;1973;50.518;7.318;2024-02-04T08:28:25;2.00;;;0.80;;
3916;SDS011;1973;50.518;7.318;2024-02-04T08:30:52;0.90;;;0.50;;
3916;SDS011;1973;50.518;7.318;2024-02-04T08:33:19;1.20;;;0.60;;
3916;SDS011;1973;50.518;7.318;2024-02-04T08:35:45;0.90;;;0.50;;
3916;SDS011;1973;50.518;7.318;2024-02-04T08:38:12;0.80;;;0.50;;
3916;SDS011;1973;50.518;7.318;2024-02-04T08:40:38;0.90;;;0.50;;
3916;SDS011;1973;50.518;7.318;2024-02-04T08:43:05;2.13;;;0.50;;
3916;SDS011;1973;50.518;7.318;2024-02-04T08:45:32;3.30;;;0.50;;
3916;SDS011;1973;50.518;7.318;2024-02-04T08:47:59;0.90;;;0.50;;
3916;SDS011;1973;50.518;7.318;2024-02-04T08:50:25;1.20;;;0.50;;
3916;SDS011;1973;50.518;7.318;2024-02-04T08:52:52;1.10;;;0.60;;
3916;SDS011;1973;50.518;7.318;2024-02-04T08:55:18;0.90;;;0.50;;
3916;SDS011;1973;50.518;7.318;2024-02-04T08:57:45;1.43;;;0.70;;
3916;SDS011;1973;50.518;7.318;2024-02-04T09:00:15;1.53;;;0.70;;
3916;SDS011;1973;50.518;7.318;2024-02-04T09:02:42;1.47;;;0.80;;
3916;SDS011;1973;50.518;7.318;2024-02-04T09:05:09;1.10;;;0.70;;
3916;SDS011;1973;50.518;7.318;2024-02-04T09:07:35;4.30;;;0.80;;
3916;SDS011;1973;50.518;7.318;2024-02-04T09:10:02;1.00;;;0.70;;
3916;SDS011;1973;50.518;7.318;2024-02-04T09:12:29;1.00;;;0.50;;
3916;SDS011;1973;50.518;7.318;2024-02-04T09:14:56;1.00;;;0.50;;
3916;SDS011;1973;50.518;7.318;2024-02-04T09:17:22;0.90;;;0.50;;
3916;SDS011;1973;50.518;7.318;2024-02-04T09:19:49;0.90;;;0.60;;
3916;SDS011;1973;50.518;7.318;2024-02-04T09:22:16;1.00;;;0.60;;
3916;SDS011;1973;50.518;7.318;2024-02-04T09:24:43;0.80;;;0.50;;
3916;SDS011;1973;50.518;7.318;2024-02-04T09:27:09;0.90;;;0.50;;
3916;SDS011;1973;50.518;7.318;2024-02-04T09:29:36;1.10;;;0.50;;
3916;SDS011;1973;50.518;7.318;2024-02-04T09:32:03;1.00;;;0.60;;
3916;SDS011;1973;50.518;7.318;2024-02-04T09:34:30;1.00;;;0.60;;
3916;SDS011;1973;50.518;7.318;2024-02-04T09:36:57;1.20;;;0.60;;
3916;SDS011;1973;50.518;7.318;2024-02-04T09:39:24;1.50;;;0.50;;
3916;SDS011;1973;50.518;7.318;2024-02-04T09:41:51;1.93;;;0.60;;
3916;SDS011;1973;50.518;7.318;2024-02-04T09:44:17;0.90;;;0.50;;
3916;SDS011;1973;50.518;7.318;2024-02-04T09:46:44;1.10;;;0.60;;
3916;SDS011;1973;50.518;7.318;2024-02-04T09:49:12;1.00;;;0.50;;
3916;SDS011;1973;50.518;7.318;2024-02-04T09:51:40;1.30;;;0.50;;
3916;SDS011;1973;50.518;7.318;2024-02-04T09:54:07;0.90;;;0.50;;
3916;SDS011;1973;50.518;7.318;2024-02-04T09:56:37;2.47;;;1.03;;
3916;SDS011;1973;50.518;7.318;2024-02-04T09:59:06;2.10;;;0.60;;
3916;SDS011;1973;50.518;7.318;2024-02-04T10:01:33;0.90;;;0.50;;
3916;SDS011;1973;50.518;7.318;2024-02-04T10:04:01;1.10;;;0.50;;
3916;SDS011;1973;50.518;7.318;2024-02-04T10:06:28;0.80;;;0.50;;
3916;SDS011;1973;50.518;7.318;2024-02-04T10:08:55;1.10;;;0.43;;
3916;SDS011;1973;50.518;7.318;2024-02-04T10:11:22;1.13;;;0.67;;
3916;SDS011;1973;50.518;7.318;2024-02-04T10:13:49;2.40;;;1.33;;
3916;SDS011;1973;50.518;7.318;2024-02-04T10:16:16;2.30;;;0.80;;
3916;SDS011;1973;50.518;7.318;2024-02-04T10:18:44;1.00;;;0.50;;
3916;SDS011;1973;50.518;7.318;2024-02-04T10:21:14;0.90;;;0.50;;
3916;SDS011;1973;50.518;7.318;2024-02-04T10:23:45;2.47;;;0.50;;
3916;SDS011;1973;50.518;7.318;2024-02-04T10:26:12;1.20;;;0.60;;
3916;SDS011;1973;50.518;7.318;2024-02-04T10:28:39;2.80;;;0.50;;
3916;SDS011;1973;50.518;7.318;2024-02-04T10:31:10;1.40;;;0.60;;
3916;SDS011;1973;50.518;7.318;2024-02-04T10:33:37;1.00;;;0.50;;
3916;SDS011;1973;50.518;7.318;2024-02-04T10:36:04;2.80;;;0.60;;
3916;SDS011;1973;50.518;7.318;2024-02-04T10:38:32;1.37;;;0.80;;
3916;SDS011;1973;50.518;7.318;2024-02-04T10:40:59;0.90;;;0.47;;
3916;SDS011;1973;50.518;7.318;2024-02-04T10:43:30;0.90;;;0.50;;
3916;SDS011;1973;50.518;7.318;2024-02-04T10:46:01;1.03;;;0.63;;
3916;SDS011;1973;50.518;7.318;2024-02-04T10:48:36;1.10;;;0.50;;
3916;SDS011;1973;50.518;7.318;2024-02-04T10:51:12;1.97;;;0.60;;
3916;SDS011;1973;50.518;7.318;2024-02-04T10:53:45;0.90;;;0.50;;
3916;SDS011;1973;50.518;7.318;2024-02-04T10:56:31;1.00;;;0.50;;
3916;SDS011;1973;50.518;7.318;2024-02-04T10:59:09;1.00;;;0.50;;
3916;SDS011;1973;50.518;7.318;2024-02-04T11:01:38;0.90;;;0.50;;
3916;SDS011;1973;50.518;7.318;2024-02-04T11:04:06;1.50;;;0.60;;
3916;SDS011;1973;50.518;7.318;2024-02-04T11:06:34;1.10;;;0.50;;
3916;SDS011;1973;50.518;7.318;2024-02-04T11:09:03;1.20;;;0.60;;
3916;SDS011;1973;50.518;7.318;2024-02-04T11:11:32;1.03;;;0.57;;
3916;SDS011;1973;50.518;7.318;2024-02-04T11:14:00;1.20;;;0.60;;
3916;SDS011;1973;50.518;7.318;2024-02-04T11:27:29;1.10;;;0.50;;
3916;SDS011;1973;50.518;7.318;2024-02-04T11:29:56;1.00;;;0.50;;
3916;SDS011;1973;50.518;7.318;2024-02-04T11:32:26;1.00;;;0.57;;
3916;SDS011;1973;50.518;7.318;2024-02-04T11:34:53;1.07;;;0.50;;
3916;SDS011;1973;50.518;7.318;2024-02-04T11:37:22;1.00;;;0.50;;
3916;SDS011;1973;50.518;7.318;2024-02-04T11:39:50;1.00;;;0.47;;
3916;SDS011;1973;50.518;7.318;2024-02-04T11:42:18;1.30;;;0.50;;
3916;SDS011;1973;50.518;7.318;2024-02-04T11:44:46;1.30;;;0.60;;
3916;SDS011;1973;50.518;7.318;2024-02-04T11:47:22;0.90;;;0.50;;
3916;SDS011;1973;50.518;7.318;2024-02-04T11:49:53;0.90;;;0.50;;
3916;SDS011;1973;50.518;7.318;2024-02-04T11:52:27;1.00;;;0.60;;
3916;SDS011;1973;50.518;7.318;2024-02-04T11:54:54;3.10;;;0.60;;
3916;SDS011;1973;50.518;7.318;2024-02-04T11:57:22;0.97;;;0.50;;
3916;SDS011;1973;50.518;7.318;2024-02-04T11:59:50;0.90;;;0.50;;
3916;SDS011;1973;50.518;7.318;2024-02-04T12:02:18;0.80;;;0.50;;
3916;SDS011;1973;50.518;7.318;2024-02-04T12:04:46;0.97;;;0.50;;
3916;SDS011;1973;50.518;7.318;2024-02-04T12:07:14;0.97;;;0.53;;
3916;SDS011;1973;50.518;7.318;2024-02-04T12:09:42;1.27;;;0.60;;
3916;SDS011;1973;50.518;7.318;2024-02-04T12:12:09;1.10;;;0.60;;
3916;SDS011;1973;50.518;7.318;2024-02-04T12:14:35;2.10;;;0.70;;
3916;SDS011;1973;50.518;7.318;2024-02-04T12:17:11;1.30;;;0.70;;
3916;SDS011;1973;50.518;7.318;2024-02-04T12:19:38;1.10;;;0.50;;
3916;SDS011;1973;50.518;7.318;2024-02-04T12:22:10;1.10;;;0.53;;
3916;SDS011;1973;50.518;7.318;2024-02-04T12:24:37;1.00;;;0.50;;
3916;SDS011;1973;50.518;7.318;2024-02-04T12:27:04;0.90;;;0.50;;
3916;SDS011;1973;50.518;7.318;2024-02-04T12:29:31;0.80;;;0.40;;
3916;SDS011;1973;50.518;7.318;2024-02-04T12:32:02;1.10;;;0.50;;
3916;SDS011;1973;50.518;7.318;2024-02-04T12:34:30;2.03;;;0.60;;
3916;SDS011;1973;50.518;7.318;2024-02-04T12:36:59;1.10;;;0.60;;
3916;SDS011;1973;50.518;7.318;2024-02-04T12:39:28;1.20;;;0.70;;
3916;SDS011;1973;50.518;7.318;2024-02-04T12:41:58;1.07;;;0.50;;
3916;SDS011;1973;50.518;7.318;2024-02-04T12:44:25;0.90;;;0.50;;
3916;SDS011;1973;50.518;7.318;2024-02-04T12:46:52;0.80;;;0.50;;
3916;SDS011;1973;50.518;7.318;2024-02-04T12:49:19;0.90;;;0.50;;
3916;SDS011;1973;50.518;7.318;2024-02-04T12:51:50;0.80;;;0.40;;
3916;SDS011;1973;50.518;7.318;2024-02-04T12:54:22;1.00;;;0.57;;
3916;SDS011;1973;50.518;7.318;2024-02-04T12:56:53;0.97;;;0.50;;
3916;SDS011;1973;50.518;7.318;2024-02-04T12:59:30;1.00;;;0.50;;
3916;SDS011;1973;50.518;7.318;2024-02-04T13:02:04;1.17;;;0.50;;
3916;SDS011;1973;50.518;7.318;2024-02-04T13:04:34;1.00;;;0.50;;
3916;SDS011;1973;50.518;7.318;2024-02-04T13:07:02;0.90;;;0.60;;
3916;SDS011;1973;50.518;7.318;2024-02-04T13:09:33;0.90;;;0.60;;
3916;SDS011;1973;50.518;7.318;2024-02-04T13:12:03;1.20;;;0.70;;
3916;SDS011;1973;50.518;7.318;2024-02-04T13:14:32;1.00;;;0.60;;
3916;SDS011;1973;50.518;7.318;2024-02-04T13:16:59;0.90;;;0.50;;
3916;SDS011;1973;50.518;7.318;2024-02-04T13:19:32;1.53;;;0.50;;
3916;SDS011;1973;50.518;7.318;2024-02-04T13:22:03;1.27;;;0.60;;
3916;SDS011;1973;50.518;7.318;2024-02-04T13:24:31;0.90;;;0.50;;
3916;SDS011;1973;50.518;7.318;2024-02-04T13:26:58;1.10;;;0.60;;
3916;SDS011;1973;50.518;7.318;2024-02-04T13:29:27;0.90;;;0.50;;
3916;SDS011;1973;50.518;7.318;2024-02-04T13:31:53;1.00;;;0.60;;
3916;SDS011;1973;50.518;7.318;2024-02-04T13:34:20;0.90;;;0.50;;
3916;SDS011;1973;50.518;7.318;2024-02-04T13:36:48;1.03;;;0.50;;
3916;SDS011;1973;50.518;7.318;2024-02-04T13:39:15;1.10;;;0.50;;
3916;SDS011;1973;50.518;7.318;2024-02-04T13:41:44;0.97;;;0.50;;
3916;SDS011;1973;50.518;7.318;2024-02-04T13:44:10;0.90;;;0.50;;
3916;SDS011;1973;50.518;7.318;2024-02-04T13:46:37;1.40;;;0.80;;
3916;SDS011;1973;50.518;7.318;2024-02-04T13:49:08;1.00;;;0.50;;
3916;SDS011;1973;50.518;7.318;2024-02-04T13:51:36;1.07;;;0.70;;
3916;SDS011;1973;50.518;7.318;2024-02-04T13:54:10;2.90;;;0.60;;
3916;SDS011;1973;50.518;7.318;2024-02-04T13:56:37;1.43;;;0.50;;
3916;SDS011;1973;50.518;7.318;2024-02-04T13:59:04;1.00;;;0.50;;
3916;SDS011;1973;50.518;7.318;2024-02-04T14:01:32;0.90;;;0.50;;
3916;SDS011;1973;50.518;7.318;2024-02-04T14:03:59;0.87;;;0.50;;
3916;SDS011;1973;50.518;7.318;2024-02-04T14:06:27;0.90;;;0.50;;
3916;SDS011;1973;50.518;7.318;2024-02-04T14:08:53;0.90;;;0.50;;
3916;SDS011;1973;50.518;7.318;2024-02-04T14:11:20;0.90;;;0.50;;
3916;SDS011;1973;50.518;7.318;2024-02-04T14:13:46;0.90;;;0.50;;
3916;SDS011;1973;50.518;7.318;2024-02-04T14:16:13;1.50;;;0.87;;
3916;SDS011;1973;50.518;7.318;2024-02-04T14:18:39;1.10;;;0.60;;
3916;SDS011;1973;50.518;7.318;2024-02-04T14:21:07;0.90;;;0.50;;
3916;SDS011;1973;50.518;7.318;2024-02-04T14:23:35;1.10;;;0.60;;
3916;SDS011;1973;50.518;7.318;2024-02-04T14:26:03;1.43;;;0.90;;
3916;SDS011;1973;50.518;7.318;2024-02-04T14:28:32;1.20;;;0.50;;
3916;SDS011;1973;50.518;7.318;2024-02-04T14:31:02;1.57;;;0.40;;
3916;SDS011;1973;50.518;7.318;2024-02-04T14:33:29;0.90;;;0.50;;
3916;SDS011;1973;50.518;7.318;2024-02-04T14:35:55;0.90;;;0.50;;
3916;SDS011;1973;50.518;7.318;2024-02-04T14:38:23;1.40;;;0.93;;
3916;SDS011;1973;50.518;7.318;2024-02-04T14:40:50;1.10;;;0.70;;
3916;SDS011;1973;50.518;7.318;2024-02-04T14:43:16;1.27;;;0.57;;
3916;SDS011;1973;50.518;7.318;2024-02-04T14:45:44;1.20;;;0.70;;
3916;SDS011;1973;50.518;7.318;2024-02-04T14:48:10;1.13;;;0.73;;
3916;SDS011;1973;50.518;7.318;2024-02-04T14:50:37;0.90;;;0.70;;
3916;SDS011;1973;50.518;7.318;2024-02-04T14:53:04;0.90;;;0.50;;
3916;SDS011;1973;50.518;7.318;2024-02-04T14:55:30;0.93;;;0.57;;
3916;SDS011;1973;50.518;7.318;2024-02-04T14:57:57;1.00;;;0.50;;
3916;SDS011;1973;50.518;7.318;2024-02-04T15:00:24;1.03;;;0.60;;
3916;SDS011;1973;50.518;7.318;2024-02-04T15:02:53;0.90;;;0.50;;
3916;SDS011;1973;50.518;7.318;2024-02-04T15:05:20;1.20;;;0.60;;
3916;SDS011;1973;50.518;7.318;2024-02-04T15:07:49;1.20;;;0.50;;
3916;SDS011;1973;50.518;7.318;2024-02-04T15:10:17;1.20;;;0.63;;
3916;SDS011;1973;50.518;7.318;2024-02-04T15:12:44;1.87;;;1.07;;
3916;SDS011;1973;50.518;7.318;2024-02-04T15:15:12;1.00;;;0.60;;
3916;SDS011;1973;50.518;7.318;2024-02-04T15:17:39;1.10;;;0.50;;
3916;SDS011;1973;50.518;7.318;2024-02-04T15:20:06;1.00;;;0.50;;
3916;SDS011;1973;50.518;7.318;2024-02-04T15:22:35;1.00;;;0.60;;
3916;SDS011;1973;50.518;7.318;2024-02-04T15:25:01;1.00;;;0.60;;
3916;SDS011;1973;50.518;7.318;2024-02-04T15:27:28;1.27;;;0.60;;
3916;SDS011;1973;50.518;7.318;2024-02-04T15:29:56;0.90;;;0.50;;
3916;SDS011;1973;50.518;7.318;2024-02-04T15:32:22;1.00;;;0.60;;
3916;SDS011;1973;50.518;7.318;2024-02-04T15:34:49;0.97;;;0.57;;
3916;SDS011;1973;50.518;7.318;2024-02-04T15:37:16;1.10;;;0.60;;
3916;SDS011;1973;50.518;7.318;2024-02-04T15:39:44;1.67;;;0.60;;